createdAt,value
2023-05-13T14:39:00.635Z,29.09
2023-05-13T14:42:55.765Z,30.20
2023-05-13T14:46:22.880Z,31.06
2023-05-13T14:54:27.424Z,32.05
2023-05-13T14:58:08.731Z,32.42
2023-05-13T15:02:07.590Z,32.74
2023-05-13T15:06:03.337Z,33.09
2023-05-13T15:09:29.571Z,33.43
2023-05-13T15:12:55.460Z,33.72
2023-05-13T15:16:19.128Z,34.03
2023-05-13T15:19:44.452Z,34.18
2023-05-13T15:23:14.413Z,34.17
2023-05-13T15:26:41.218Z,34.06
2023-05-13T15:30:12.030Z,33.95
2023-05-13T15:33:33.360Z,33.73
2023-05-13T15:36:56.960Z,33.40
2023-05-13T15:40:23.653Z,33.10
2023-05-13T15:43:45.552Z,32.79
2023-05-13T15:47:06.711Z,32.66
2023-05-13T15:50:27.758Z,32.47
2023-05-13T15:53:48.700Z,32.39
2023-05-13T15:57:50.046Z,32.49
2023-05-13T16:02:43.642Z,32.65
2023-05-13T16:06:41.277Z,32.64
2023-05-13T16:10:23.872Z,32.70
2023-05-13T16:24:15.652Z,32.73
2023-05-13T16:29:25.339Z,32.72
2023-05-13T16:37:19.354Z,32.63
2023-05-13T16:42:13.930Z,32.44
2023-05-13T16:52:55.391Z,32.15
2023-05-13T16:56:57.286Z,32.10
2023-05-13T17:05:32.493Z,31.88
2023-05-13T17:09:23.456Z,31.84
2023-05-13T17:13:31.187Z,31.92
2023-05-13T17:23:39.813Z,31.77
2023-05-13T17:26:51.072Z,31.85
2023-05-13T17:35:40.248Z,31.13
2023-05-13T17:43:23.590Z,30.19
2023-05-13T17:46:50.583Z,30.28
2023-05-13T17:50:40.622Z,30.58
2023-05-13T17:54:04.709Z,30.80
2023-05-13T17:57:49.886Z,30.94
2023-05-13T18:01:52.528Z,31.04
2023-05-13T18:05:13.652Z,31.15
2023-05-13T18:08:50.668Z,31.24
2023-05-13T18:15:58.254Z,31.32
2023-05-13T18:19:22.722Z,31.28
2023-05-13T18:22:52.065Z,31.28
2023-05-13T18:26:26.750Z,31.34
2023-05-13T18:29:47.664Z,31.40
2023-05-13T18:33:08.699Z,31.45
2023-05-13T18:36:30.255Z,31.53
2023-05-13T18:39:51.236Z,31.60
2023-05-13T18:43:15.349Z,31.55
2023-05-13T18:46:44.667Z,31.60
2023-05-13T18:50:12.419Z,31.68
2023-05-13T18:53:45.197Z,31.73
2023-05-13T18:57:12.830Z,31.74
2023-05-13T19:00:38.048Z,31.74
2023-05-13T19:04:02.103Z,31.75
2023-05-13T19:07:29.542Z,31.77
2023-05-13T19:11:27.527Z,31.79
2023-05-13T19:14:46.696Z,31.80
2023-05-13T19:18:10.727Z,31.80
